Terminal Aerodrome Forecast
Issued by NWS Albany, NY

Home | Current Version | Previous Version | Text Only | Print | Product List | Glossary On
Versions: 1 2 3 4 5 6 7 8 9 10 11 12 13 14 15 16 17 18 19 20 21 22 23
000
FTUS41 KALY 302337
TAFALB
TAF
KALB 302337Z 3100/3124 29008KT P6SM SCT050
     FM310900 00000KT P6SM MIFG SKC
     FM311100 24008KT P6SM SCT035
     FM311600 29010G20KT P6SM SCT045
     FM312300 29005KT P6SM SKC=

USA.gov is the U.S. government's official web portal to all federal, state and local government web resources and services.